DABCDABT

Guest
Details From DABC - MOHAMED BOUDIAF INTL
To DABT - BATNA
Flight Number -
Tags generated
Created
Modified
Stats Distance 35 nm / 65 km
Max Altitude 400 ft / 122 m
Waypoints 3
Social Downloads 0
Likes 0
Share VATSIM

Download

Looking for another format? Having issues loading an existing format? Contact us
Advertisement - Login to hide

Notes

Basic altitude profile: - Ascent Rate: 2500ft/min - Ascent Speed: 250kts - Cruise Altitude: 35000ft - Cruise Speed: 420kts - Descent Rate: 1500ft/min - Descent Speed: 250kts Options: - Use NATs: yes - Use PACOTS: yes - Use low airways: yes - Use high airways: yes

Route

DABC BTN DABT

ID Type Via Altitude Latitude Longitude Leg Dist Tot Dist Heading (true) Name
O DABC APT - 0 ft / 0 m 36.27604˚ 6.62028˚ - 0 nm - MOHAMED BOUDIAF INTL
BTN VOR - 400 ft / 122 m 35.77153˚ 6.34379˚ 33 nm 33 nm 204° / 204° BATNA VOR-DME
O DABT APT - 0 ft / 0 m 35.75210˚ 6.30859˚ 2 nm 35 nm 236° / 236° BATNA

Altitude Profile

Advertisement - Login to hide

DABC

Details ICAO DABC (CZL)
Name MOHAMED BOUDIAF INTL
Region Algeria
Timezone Africa/Algiers (UTC+1.0)
Stats Elevation 2,265 ft / 690 m (AMSL)
Location 36.276042° 6.620278°
Runways 2
Magnetic Variation 1.731° E

METAR

DABC 150630Z VRB02KT 9999 FEW020 05/00 Q1015

Decode

TAF

TAF DABC 150500Z 1506/1606 22006KT CAVOK BECMG 1510/1512 26014KT BECMG 1519/1521 26008KT 8000 -RA FEW026 BKN040 TEMPO 1600/16016 30014G24KT 3000 TSRA FEW030CB

Decode

Departure Runways

ID Width Length Bearing (true) Bearing (mag) Surface Threshold Offset Overrun Length
14 148 ft / 45 m 7,886 ft / 2,404 m 136.03° 134.30° Asphalt 0 ft / 0 m 340 ft / 104 m
16 148 ft / 45 m 9,871 ft / 3,009 m 159.14° 157.41° Asphalt 0 ft / 0 m 400 ft / 122 m
32 148 ft / 45 m 7,886 ft / 2,404 m 316.04° 314.31° Asphalt 0 ft / 0 m 200 ft / 61 m
34 148 ft / 45 m 9,871 ft / 3,009 m 339.15° 337.42° Asphalt 0 ft / 0 m 400 ft / 122 m

DABT

Details ICAO DABT (BLJ)
Name BATNA
Region Algeria
Timezone Africa/Algiers (UTC+1.0)
Stats Elevation 2,697 ft / 822 m (AMSL)
Location 35.752104° 6.308589°
Runways 1
Magnetic Variation 1.651° E

METAR

DABT 150600Z 28004KT CAVOK 04/M02 Q1015

Decode

TAF

TAF DABT 150500Z 1506/1606 22008KT CAVOK BECMG 1508/1510 24016KT BECMG 1520/1522 26008KT TEMPO 1603/1606 30012KT 5000 -TSRA FEW026CB BKN033

Decode

Destination Runways

ID Width Length Bearing (true) Bearing (mag) Surface Threshold Offset Overrun Length
05 148 ft / 45 m 9,837 ft / 2,998 m 54.80° 53.15° Asphalt 0 ft / 0 m 350 ft / 107 m
23 148 ft / 45 m 9,837 ft / 2,998 m 234.81° 233.16° Asphalt 0 ft / 0 m 375 ft / 114 m